Sarcobatus Flat, Nevada Weather observations

Data are for observation ending at time listed.
 Day   Time    Ave.   Ave.  Ave.  Vector   Max.   Stn.    Total    Solar   Ave.  
  of    of     Air    Rel.  Wind   Wind    Wind   Baro.  Precip.   Rad.    Soil  
Year   Day     Temp.  Hum.  Speed  Dir.    Gust   Pres.                    Temp. 
2016   (PST)    F      %     mph   deg.    mph     mb.     in.     W/m2     F   
------------------------------------------------------------------------------
 177   20:40   80.0     9    4.9    87      5.6   877.5    0.00       0    999.0
 177   20:50   79.9     9    5.1    82      5.9   877.6    0.00       0    999.0
 177   21:00   79.9     9    5.6    94      7.1   877.7    0.00       0    999.0
 177   21:10   80.5     9    5.0   105      8.0   877.8    0.00       0    999.0
 177   21:20   80.9     9    4.9   101      7.8   877.9    0.00       0    999.0
 177   21:30   79.5     9    2.9   124      4.2   877.9    0.00       0    999.0
 177   21:40   79.6    10    2.7    82      3.7   878.0    0.00       0    999.0
 177   21:50   77.9    10    1.5    62      3.0   878.1    0.00       0    999.0
 177   22:00   75.3    10    3.5   355      7.2   878.1    0.00       0    999.0
 177   22:10   72.4    11    7.1   320      8.8   878.2    0.00       0    999.0
 177   22:20   73.2    11    6.5   344      8.1   878.3    0.00       0    999.0
 177   22:30   73.8    11    5.0     5      6.9   878.4    0.00       0    999.0
 177   22:40   73.5    11    5.5   345      7.2   878.5    0.00       0    999.0
 177   22:50   71.9    11    4.9   352      6.4   878.5    0.00       0    999.0
 177   23:00   71.4    11    5.1   343      6.5   878.5    0.00       0    999.0
 177   23:10   70.5    12    4.6   340      6.0   878.5    0.00       0    999.0
 177   23:20   70.1    12    3.7   328      5.0   878.6    0.00       0    999.0
 177   23:30   70.2    12    3.4   296      6.4   878.7    0.00       0    999.0
 177   23:40   70.6    12    7.1   311     11.4   878.9    0.00       0    999.0
 177   23:50   72.2    11    4.3   326      7.5   879.1    0.00       0    999.0
 178    0:00   72.1    12    3.4   347      4.1   879.1    0.00       0    999.0
 178    0:10   69.7    12    3.9   319      5.3   879.1    0.00       0    999.0
 178    0:20   68.8    12    6.0   326      8.0   879.2    0.00       0    999.0
 178    0:30   70.0    12    7.6   332      9.3   879.1    0.00       0    999.0
 178    0:40   69.5    12    7.3   348      9.2   879.1    0.00       0    999.0
 178    0:50   68.5    12    3.8    10      6.7   879.0    0.00       0    999.0
 178    1:00   68.4    12    2.7    28      4.7   879.1    0.00       0    999.0
 178    1:10   67.8    12    3.2   308      5.3   879.1    0.00       0    999.0
 178    1:20   66.7    13    2.3   318      4.7   879.2    0.00       0    999.0
 178    1:30   66.9    13    1.8   347      3.1   879.2    0.00       0    999.0
 178    1:40   66.1    14    0.8   352      2.6   879.3    0.00       0    999.0
 178    1:50   66.8    13    1.4   347      2.4   879.3    0.00       0    999.0
 178    2:00   65.5    13    4.2   310      6.6   879.4    0.00       0    999.0
 178    2:10   66.9    13    4.3   334      6.1   879.6    0.00       0    999.0
 178    2:20   67.0    12    3.2    24      6.4   879.6    0.00       0    999.0
 178    2:30   64.2    13    3.7    43      4.7   879.6    0.00       0    999.0
 178    2:40   64.5    13    2.7    35      4.1   879.7    0.00       0    999.0
 178    2:50   62.4    14    2.2   340      4.9   879.8    0.00       0    999.0
 178    3:00   65.0    13    2.3   302      5.3   879.7    0.00       0    999.0
 178    3:10   63.7    14    2.5   353      4.7   879.9    0.00       0    999.0
 178    3:20   63.1    14    2.8    13      5.3   879.9    0.00       0    999.0
 178    3:30   61.3    15    1.9    27      4.2   880.0    0.00       0    999.0
 178    3:40   60.7    15    4.3    18      6.6   880.0    0.00       0    999.0
 178    3:50   62.0    14    3.2    58      5.1   880.1    0.00       0    999.0
 178    4:00   60.4    15    1.1    27      3.3   880.2    0.00       0    999.0
 178    4:10   59.5    15    1.8   239      4.5   880.3    0.00       0    999.0
 178    4:20   59.6    16    1.2    98      4.1   880.5    0.00       1    999.0
 178    4:30   59.3    15    1.3    34      3.0   880.4    0.00       3    999.0
 178    4:40   57.8    16    2.2    83      3.9   880.4    0.00       7    999.0
 178    4:50   58.5    17    0.9   125      3.0   880.5    0.00      13    999.0
 178    5:00   58.2    17    1.4    78      3.1   880.6    0.00      20    999.0
 178    5:10   59.0    16    4.2   305      7.7   880.7    0.00      61    999.0
 178    5:20   65.7    13    7.2   343     11.8   880.4    0.00      90    999.0
 178    5:30   68.4    12    9.4   330     13.7   880.3    0.00     117    999.0
 178    5:40   69.8    12   10.4   323     13.0   880.5    0.00     148    999.0
 178    5:50   71.4    12    8.4   323     12.1   880.5    0.00     178    999.0
 178    6:00   72.9    11    7.8   324     10.2   880.5    0.00     208    999.0
 178    6:10   74.1    11    5.0   334      8.6   880.6    0.00     241    999.0
 178    6:20   74.0    12    1.7   104      4.2   880.7    0.00     273    999.0
 178    6:30   76.3    11    3.4   334      6.8   880.7    0.00     307    999.0
 178    6:40   77.9    10    5.7   339      9.1   880.7    0.00     343    999.0
 178    6:50   79.2    10    3.1   352      6.1   880.8    0.00     380    999.0
 178    7:00   81.8     9    5.5   316     10.7   880.9    0.00     414    999.0
 178    7:10   82.4     9    3.4   355      8.5   880.9    0.00     446    999.0
 178    7:20   83.4     9    3.1   344      6.6   881.0    0.00     482    999.0
 178    7:30   85.4     9    3.1   352      6.7   880.9    0.00     512    999.0
 178    7:40   86.7     9    2.6    33      5.0   880.9    0.00     541    999.0
 178    7:50   86.6     9    3.3    89      6.9   880.9    0.00     572    999.0
 178    8:00   86.4     8    3.3   110      5.0   880.9    0.00     605    999.0
 178    8:10   87.7     8    2.0    90      4.2   880.8    0.00     635    999.0
 178    8:20   88.8     8    2.6   122      5.6   880.9    0.00     665    999.0
 178    8:30   89.1     8    2.4   143      5.6   880.9    0.00     693    999.0
 178    8:40   90.4     7    2.3   169      4.7   880.7    0.00     723    999.0
 178    8:50   90.4     7    2.4   125      5.5   880.6    0.00     747    999.0
 178    9:00   90.6     7    2.0   169      4.7   880.6    0.00     771    999.0
 178    9:10   91.2     7    2.4    60      5.9   880.5    0.00     799    999.0
 178    9:20   92.0     7    2.8   177      6.6   880.4    0.00     822    999.0
 178    9:30   91.7     8    2.5   163      7.1   880.4    0.00     848    999.0
 178    9:40   92.9     7    5.3   166     11.0   880.3    0.00     866    999.0
 178    9:50   92.7     8    4.7   160     11.2   880.3    0.00     886    999.0
 178   10:00   92.8     8    6.1   157     11.3   880.2    0.00     898    999.0
 178   10:10   93.3     8    5.5   188     10.2   880.2    0.00     921    999.0
 178   10:20   94.0     8    5.9   165     12.2   880.2    0.00     930    999.0
 178   10:30   94.0     8    4.8   134     13.2   880.1    0.00     941    999.0
 178   10:40   95.1     8    7.1   147     13.8   880.1    0.00     953    999.0
 178   10:50   95.6     8    6.2   174     13.2   879.9    0.00     973    999.0
 178   11:00   96.0     8    5.8   140      9.8   879.9    0.00     992    999.0
 178   11:10   96.7     8    7.3   215     14.8   879.8    0.00    1001    999.0
 178   11:20   96.8     8    8.8   151     17.1   879.7    0.00    1004    999.0
 178   11:30   97.4     7   10.1   147     16.6   879.5    0.00    1012    999.0
 178   11:40   97.2     7    7.4   156     16.3   879.7    0.00    1020    999.0
 178   11:50   97.2     7    5.3   204     11.5   879.5    0.00    1022    999.0
 178   12:00   97.8     7    6.0   220     11.6   879.3    0.00    1022    999.0
 178   12:10   99.3     7    8.7   205     20.9   879.3    0.00    1018    999.0
 178   12:20   98.2     7    6.4   231     11.0   879.2    0.00    1014    999.0
 178   12:30   98.5     7    4.6   201     12.2   879.0    0.00    1014    999.0
 178   12:40   99.3     7    3.7   217      9.9   878.9    0.00    1007    999.0
 178   12:50   99.6     6    9.0   235     15.9   878.8    0.00     996    999.0
 178   13:00   99.4     7    6.7   194     14.6   878.7    0.00     994    999.0
 178   13:10   99.3     7    6.1   191     14.1   878.6    0.00     986    999.0
 178   13:20  100.0     6    5.9   190     13.7   878.5    0.00     973    999.0
 178   13:30  101.7     6   12.2   187     22.5   878.4    0.00     957    999.0
 178   13:40  102.3     6   14.7   191     21.3   878.3    0.00     941    999.0
 178   13:50  101.3     6   10.1   176     16.6   878.2    0.00     921    999.0
 178   14:00  101.6     6   12.7   199     22.1   878.2    0.00     902    999.0
 178   14:10  102.2     6   11.0   209     18.3   878.1    0.00     874    999.0
 178   14:20  101.7     6   13.7   190     21.8   878.1    0.00     858    999.0
 178   14:30  100.7     6   10.5   175     20.9   878.0    0.00     834    999.0
 178   14:40  101.0     6    9.7   250     18.1   877.9    0.00     809    999.0
 178   14:50  101.1     6   12.1   263     18.3   877.9    0.00     780    999.0
 178   15:00  100.9     6    7.1   237     14.8   877.8    0.00     757    999.0
 178   15:10  101.1     6    9.9   230     21.6   877.8    0.00     728    999.0
 178   15:20  101.0     6    8.2   207     14.5   877.7    0.00     701    999.0
 178   15:30  101.3     6    7.2   211     14.6   877.7    0.00     663    999.0
 178   15:40  100.7     6    9.3   167     17.2   877.6    0.00     632    999.0
 178   15:50  100.3     7    4.9   182     14.4   877.5    0.00     602    999.0
 178   16:00  101.5     6    7.9   196     13.7   877.5    0.00     564    999.0
 178   16:10  101.4     6   10.7   215     18.2   877.4    0.00     529    999.0
 178   16:20  100.7     6    6.1   196     12.4   877.4    0.00     497    999.0
 178   16:30  101.2     6    5.9   204     11.9   877.3    0.00     457    999.0
 178   16:40  100.9     6    7.0   186     13.7   877.3    0.00     427    999.0
 178   16:50  100.7     6    7.1   240     13.7   877.2    0.00     396    999.0
 178   17:00  100.6     7    9.2   209     17.4   877.4    0.00     364    999.0
 178   17:10   99.7     7   10.9   166     17.4   877.4    0.00     331    999.0
 178   17:20   99.1     7   10.5   151     17.0   877.4    0.00     295    999.0
 178   17:30   99.2     7   12.1   162     16.6   877.4    0.00     263    999.0
 178   17:40   98.9     7   12.0   157     18.2   877.5    0.00     228    999.0
 178   17:50   98.6     8   13.4   157     19.1   877.5    0.00     132    999.0
 178   18:00   98.2     8   13.1   157     17.8   877.6    0.00      53    999.0
 178   18:10   97.7     8   12.1   152     16.7   877.7    0.00      48    999.0
 178   18:20   97.3     8   12.7   159     16.9   877.8    0.00      72    999.0
 178   18:30   96.7     8    9.4   166     13.2   877.9    0.00      81    999.0
 178   18:40   96.0     8   10.2   163     13.6   877.9    0.00      46    999.0
 178   18:50   94.9     9    8.4   159     12.9   878.0    0.00      25    999.0
 178   19:00   94.0     9    8.1   162     11.5   878.1    0.00      19    999.0
 178   19:10   92.5     9    6.3   153      8.6   878.1    0.00       8    999.0
 178   19:20   90.9    10    5.9   144      6.9   878.2    0.00       3    999.0
 178   19:30   89.3    10    4.6   136      6.7   878.4    0.00       1    999.0
 178   19:40   88.1    11    3.0   119      4.2   878.5    0.00       0    999.0
 178   19:50   86.8    11    2.6   124      3.7   878.6    0.00       0    999.0
 178   20:00   85.7    11    2.4   130      3.4   878.7    0.00       0    999.0
 178   20:10   84.7    11    2.9   132      3.7   878.8    0.00       0    999.0
 178   20:20   83.4    12    2.1   142      3.4   878.9    0.00       0    999.0
 178   20:30   81.8    12    0.7   301      2.9   879.1    0.00       0    999.0

Return to Sarcobatus Flat, Nevada graphs page.


Western Regional Climate Center,wrcc@dri.edu